Time;durP1;ratioP1;P1;durP2;ratioP2;P2;SDS_P1;SDS_P2;PMS_P1;PMS_P2;Temp;Humidity;BMP_temperature;BMP_pressure;BME280_temperature;BME280_humidity;BME280_pressure;Samples;Min_cycle;Max_cycle;Signal;HPM_P1;HPM_P2
2022/01/16 00:01:59;;;;;;;29.73;11.32;;;;;;;;;;4923950;29;20048;-63
2022/01/16 00:04:27;;;;;;;37.22;13.32;;;;;;;;;;4924466;29;20058;-63
2022/01/16 00:06:55;;;;;;;27.90;11.80;;;;;;;;;;4921918;29;20052;-63
2022/01/16 00:09:22;;;;;;;30.77;11.45;;;;;;;;;;4926803;29;20063;-65
2022/01/16 00:11:50;;;;;;;36.10;11.90;;;;;;;;;;4928752;29;20060;-64
2022/01/16 00:14:16;;;;;;;34.05;13.40;;;;;;;;;;4929499;29;20044;-64
2022/01/16 00:16:43;;;;;;;29.15;13.88;;;;;;;;;;4930209;29;20071;-63
2022/01/16 00:19:09;;;;;;;28.42;11.15;;;;;;;;;;4905219;29;20060;-63
2022/01/16 00:21:40;;;;;;;30.48;11.75;;;;;;;;;;4922457;29;20480;-63
2022/01/16 00:24:09;;;;;;;28.95;11.02;;;;;;;;;;4922164;29;20503;-64
2022/01/16 00:26:36;;;;;;;31.13;11.18;;;;;;;;;;4925019;29;20131;-64
2022/01/16 00:29:04;;;;;;;29.92;11.88;;;;;;;;;;4926546;29;20066;-65
2022/01/16 00:31:30;;;;;;;34.20;13.60;;;;;;;;;;4922661;29;20873;-64
2022/01/16 00:33:57;;;;;;;33.00;12.65;;;;;;;;;;4923629;29;20054;-64
2022/01/16 00:36:23;;;;;;;34.25;12.40;;;;;;;;;;4920050;29;20438;-65
2022/01/16 00:38:53;;;;;;;32.70;12.52;;;;;;;;;;4923105;29;20142;-65
2022/01/16 00:41:22;;;;;;;37.38;14.98;;;;;;;;;;4925514;29;20114;-65
2022/01/16 00:43:49;;;;;;;38.38;13.15;;;;;;;;;;4931269;29;20071;-65
2022/01/16 00:46:16;;;;;;;33.47;11.27;;;;;;;;;;4927724;29;20134;-65
2022/01/16 00:48:42;;;;;;;35.08;12.60;;;;;;;;;;4921897;29;20052;-65
2022/01/16 00:51:09;;;;;;;33.10;11.70;;;;;;;;;;4922685;29;20142;-65
2022/01/16 00:53:36;;;;;;;30.00;12.15;;;;;;;;;;4921639;29;20572;-65
2022/01/16 00:56:03;;;;;;;38.63;13.65;;;;;;;;;;4922923;29;20070;-64
2022/01/16 00:58:31;;;;;;;34.38;13.15;;;;;;;;;;4923898;28;20135;-64
2022/01/16 01:00:58;;;;;;;32.47;11.75;;;;;;;;;;4922905;29;20698;-64
2022/01/16 01:03:25;;;;;;;27.05;11.38;;;;;;;;;;4926144;29;20151;-64
2022/01/16 01:05:52;;;;;;;29.05;11.20;;;;;;;;;;4933122;29;20147;-65
2022/01/16 01:08:19;;;;;;;37.88;12.48;;;;;;;;;;4925074;29;20056;-64
2022/01/16 01:10:49;;;;;;;35.13;13.52;;;;;;;;;;4927081;29;20741;-64
2022/01/16 01:13:22;;;;;;;48.58;16.75;;;;;;;;;;4926663;29;20066;-64
2022/01/16 01:15:58;;;;;;;38.22;13.50;;;;;;;;;;4925302;29;20036;-64
2022/01/16 01:18:25;;;;;;;27.58;11.75;;;;;;;;;;4925854;29;20052;-64
2022/01/16 01:20:52;;;;;;;36.97;13.82;;;;;;;;;;4924569;29;20067;-64
2022/01/16 01:23:19;;;;;;;36.72;13.48;;;;;;;;;;4927761;29;20058;-64
2022/01/16 01:25:46;;;;;;;39.75;13.98;;;;;;;;;;4925657;29;20135;-64
2022/01/16 01:28:13;;;;;;;38.58;15.38;;;;;;;;;;4925364;29;20067;-63
2022/01/16 01:30:40;;;;;;;40.17;15.93;;;;;;;;;;4924971;29;21810;-63
2022/01/16 01:33:08;;;;;;;37.85;15.80;;;;;;;;;;4922890;29;20071;-62
2022/01/16 01:35:38;;;;;;;36.40;14.00;;;;;;;;;;4922009;29;20171;-63
2022/01/16 01:38:06;;;;;;;35.03;13.93;;;;;;;;;;4924304;29;20051;-63
2022/01/16 01:40:35;;;;;;;32.90;11.35;;;;;;;;;;4926376;29;20146;-63
2022/01/16 01:51:02;;;;;;;43.22;15.63;;;;;;;;;;4921227;29;20051;-64
2022/01/16 01:51:31;;;;;;;29.83;12.05;;;;;;;;;;4922384;29;19945;-63
2022/01/16 01:53:58;;;;;;;31.10;11.75;;;;;;;;;;4924775;29;20040;-64
2022/01/16 01:56:26;;;;;;;34.42;13.80;;;;;;;;;;4927182;29;20130;-62
2022/01/16 01:58:55;;;;;;;37.10;14.55;;;;;;;;;;4922832;29;20528;-64
2022/01/16 02:01:22;;;;;;;34.90;12.75;;;;;;;;;;4922368;29;20146;-64
2022/01/16 02:03:51;;;;;;;31.50;13.07;;;;;;;;;;4923701;29;20099;-64
2022/01/16 02:06:19;;;;;;;38.95;13.05;;;;;;;;;;4929924;29;20060;-64
2022/01/16 02:08:47;;;;;;;34.30;13.50;;;;;;;;;;4922609;29;20144;-64
2022/01/16 02:11:15;;;;;;;30.70;10.75;;;;;;;;;;4923821;29;21032;-64
2022/01/16 02:13:50;;;;;;;36.95;13.70;;;;;;;;;;4920424;29;20126;-64
2022/01/16 02:35:47;;;;;;;43.03;15.57;;;;;;;;;;4921866;29;20052;-64
2022/01/16 02:38:14;;;;;;;33.58;14.50;;;;;;;;;;4928538;29;20062;-64
2022/01/16 02:40:49;;;;;;;35.53;14.48;;;;;;;;;;4924940;29;20080;-64
2022/01/16 02:43:18;;;;;;;35.60;12.88;;;;;;;;;;4922219;29;20072;-64
2022/01/16 02:45:48;;;;;;;35.72;14.68;;;;;;;;;;4922081;29;20174;-64
2022/01/16 02:48:15;;;;;;;39.75;14.60;;;;;;;;;;4922815;29;20067;-64
2022/01/16 02:50:41;;;;;;;38.38;15.57;;;;;;;;;;4918511;29;20143;-64
2022/01/16 02:53:10;;;;;;;38.92;14.90;;;;;;;;;;4922970;29;20051;-64
2022/01/16 02:55:40;;;;;;;39.60;15.57;;;;;;;;;;4922325;29;20052;-64
2022/01/16 02:58:08;;;;;;;42.08;19.15;;;;;;;;;;4924578;29;20056;-64
2022/01/16 03:00:35;;;;;;;39.53;18.30;;;;;;;;;;4922310;29;20436;-64
2022/01/16 03:03:02;;;;;;;41.60;18.42;;;;;;;;;;4922890;29;20043;-64
2022/01/16 03:05:28;;;;;;;41.92;17.83;;;;;;;;;;4923270;29;20949;-64
2022/01/16 03:07:55;;;;;;;39.38;17.27;;;;;;;;;;4921147;29;20166;-64
2022/01/16 03:13:14;;;;;;;43.45;19.52;;;;;;;;;;4919546;29;20056;-64
2022/01/16 03:15:41;;;;;;;42.22;18.83;;;;;;;;;;4921239;29;20040;-64
2022/01/16 03:23:33;;;;;;;38.83;17.70;;;;;;;;;;4919317;28;20118;-64
2022/01/16 03:26:00;;;;;;;44.28;19.00;;;;;;;;;;4925528;29;20571;-64
2022/01/16 03:28:29;;;;;;;41.80;17.83;;;;;;;;;;4929691;29;20094;-64
2022/01/16 03:30:56;;;;;;;43.65;18.35;;;;;;;;;;4927361;29;20469;-64
2022/01/16 03:33:23;;;;;;;46.67;20.30;;;;;;;;;;4921280;29;20080;-64
2022/01/16 03:35:51;;;;;;;43.00;18.05;;;;;;;;;;4921293;29;20197;-63
2022/01/16 03:38:18;;;;;;;46.00;20.15;;;;;;;;;;4922869;29;20075;-64
2022/01/16 03:40:44;;;;;;;45.05;20.02;;;;;;;;;;4926823;29;20060;-64
2022/01/16 03:43:14;;;;;;;39.03;17.98;;;;;;;;;;4924343;29;20709;-64
2022/01/16 03:45:47;;;;;;;41.55;19.20;;;;;;;;;;4923923;29;20082;-63
2022/01/16 03:48:13;;;;;;;43.60;19.48;;;;;;;;;;4925278;29;20489;-64
2022/01/16 03:50:40;;;;;;;44.83;19.38;;;;;;;;;;4919958;29;20123;-64
2022/01/16 03:53:07;;;;;;;41.97;19.10;;;;;;;;;;4922085;29;20540;-64
2022/01/16 03:55:34;;;;;;;42.08;19.38;;;;;;;;;;4924755;29;20079;-64
2022/01/16 03:58:01;;;;;;;39.08;18.67;;;;;;;;;;4922140;29;20067;-64
2022/01/16 04:00:28;;;;;;;40.13;18.60;;;;;;;;;;4921520;29;20687;-64
2022/01/16 04:02:56;;;;;;;40.38;19.85;;;;;;;;;;4921281;29;20095;-64
2022/01/16 04:05:22;;;;;;;43.92;20.23;;;;;;;;;;4934036;28;20134;-64
2022/01/16 04:07:49;;;;;;;44.50;21.52;;;;;;;;;;4921672;29;20146;-64
2022/01/16 04:10:15;;;;;;;39.83;21.60;;;;;;;;;;4923225;29;20115;-64
2022/01/16 04:12:44;;;;;;;45.40;19.95;;;;;;;;;;4921419;29;20154;-64
2022/01/16 04:17:56;;;;;;;46.42;19.73;;;;;;;;;;4920803;29;20058;-64
2022/01/16 04:20:23;;;;;;;45.25;20.23;;;;;;;;;;4922792;29;20135;-64
2022/01/16 04:22:50;;;;;;;40.08;18.67;;;;;;;;;;4921279;29;20130;-64
2022/01/16 04:25:18;;;;;;;42.78;18.85;;;;;;;;;;4921933;29;20548;-64
2022/01/16 04:27:44;;;;;;;41.05;19.60;;;;;;;;;;4922669;29;20138;-64
2022/01/16 04:30:12;;;;;;;44.22;19.67;;;;;;;;;;4922140;29;20040;-64
2022/01/16 04:32:38;;;;;;;41.25;20.98;;;;;;;;;;4923484;29;20138;-64
2022/01/16 04:35:07;;;;;;;40.05;18.90;;;;;;;;;;4925924;29;20147;-64
2022/01/16 04:37:34;;;;;;;40.63;18.83;;;;;;;;;;4925288;29;20079;-64
2022/01/16 04:40:02;;;;;;;46.97;21.40;;;;;;;;;;4925151;29;20147;-64
2022/01/16 04:45:13;;;;;;;40.47;20.20;;;;;;;;;;4925152;29;20071;-64
2022/01/16 04:47:42;;;;;;;43.60;19.30;;;;;;;;;;4923447;29;20139;-64
2022/01/16 04:50:13;;;;;;;36.97;17.33;;;;;;;;;;4922086;29;20050;-64
2022/01/16 04:52:40;;;;;;;42.40;20.80;;;;;;;;;;4925304;29;20098;-64
2022/01/16 04:55:08;;;;;;;43.35;21.00;;;;;;;;;;4924362;29;21037;-63
2022/01/16 04:57:35;;;;;;;42.45;21.13;;;;;;;;;;4926621;29;20564;-64
2022/01/16 05:00:02;;;;;;;38.58;19.40;;;;;;;;;;4922095;29;20114;-64
2022/01/16 05:02:29;;;;;;;40.17;20.10;;;;;;;;;;4924114;29;20083;-64
2022/01/16 05:04:55;;;;;;;45.13;19.42;;;;;;;;;;4926220;29;21000;-63
2022/01/16 05:07:23;;;;;;;46.47;19.05;;;;;;;;;;4924103;29;20134;-63
2022/01/16 05:09:50;;;;;;;46.58;22.10;;;;;;;;;;4926624;29;20252;-63
2022/01/16 05:12:25;;;;;;;36.33;19.80;;;;;;;;;;4923552;29;20138;-62
2022/01/16 05:17:36;;;;;;;41.92;21.30;;;;;;;;;;4925675;29;20047;-64
2022/01/16 05:20:04;;;;;;;44.03;20.90;;;;;;;;;;4923390;29;20771;-64
2022/01/16 05:22:32;;;;;;;45.70;21.52;;;;;;;;;;4925876;29;20039;-63
2022/01/16 05:24:58;;;;;;;39.42;19.42;;;;;;;;;;4931455;29;20126;-63
2022/01/16 05:27:25;;;;;;;40.88;19.77;;;;;;;;;;4934293;29;20523;-63
2022/01/16 05:29:51;;;;;;;45.08;20.05;;;;;;;;;;4923885;29;20094;-63
2022/01/16 05:32:18;;;;;;;40.83;21.27;;;;;;;;;;4924088;29;20134;-64
2022/01/16 05:34:44;;;;;;;49.58;22.33;;;;;;;;;;4925257;29;20147;-64
2022/01/16 05:37:11;;;;;;;46.22;21.50;;;;;;;;;;4924556;29;20792;-63
2022/01/16 05:39:40;;;;;;;47.88;21.73;;;;;;;;;;4924307;29;20182;-63
2022/01/16 05:42:08;;;;;;;44.63;20.42;;;;;;;;;;4907112;29;20056;-64
2022/01/16 05:44:35;;;;;;;43.00;20.55;;;;;;;;;;4919345;29;20137;-64
2022/01/16 05:47:05;;;;;;;40.85;19.70;;;;;;;;;;4922619;29;20155;-65
2022/01/16 05:49:31;;;;;;;40.03;20.08;;;;;;;;;;4923997;29;20048;-65
2022/01/16 05:51:58;;;;;;;41.70;20.27;;;;;;;;;;4922073;29;20472;-65
2022/01/16 05:54:24;;;;;;;47.05;21.80;;;;;;;;;;4924718;29;20151;-64
2022/01/16 05:56:52;;;;;;;44.83;21.90;;;;;;;;;;4927403;29;20173;-64
2022/01/16 05:59:19;;;;;;;46.50;23.02;;;;;;;;;;4920574;29;20071;-64
2022/01/16 06:01:45;;;;;;;49.55;21.25;;;;;;;;;;4926003;29;20138;-65
2022/01/16 06:04:12;;;;;;;44.83;21.90;;;;;;;;;;4927323;29;20136;-65
2022/01/16 06:06:38;;;;;;;42.50;20.35;;;;;;;;;;4925623;29;20150;-65
2022/01/16 06:09:05;;;;;;;44.75;21.75;;;;;;;;;;4925157;29;20103;-65
2022/01/16 06:11:32;;;;;;;43.00;19.52;;;;;;;;;;4922275;29;21613;-65
2022/01/16 06:13:59;;;;;;;37.50;18.13;;;;;;;;;;4924290;29;20060;-64
2022/01/16 06:16:26;;;;;;;37.17;19.00;;;;;;;;;;4923626;29;20074;-65
2022/01/16 06:18:53;;;;;;;44.28;20.40;;;;;;;;;;4925879;29;20079;-65
2022/01/16 06:21:20;;;;;;;41.35;19.73;;;;;;;;;;4922755;29;20051;-65
2022/01/16 06:23:46;;;;;;;47.13;21.08;;;;;;;;;;4923343;29;20442;-65
2022/01/16 06:26:13;;;;;;;43.70;21.20;;;;;;;;;;4923247;29;20075;-65
2022/01/16 06:28:39;;;;;;;49.05;20.73;;;;;;;;;;4923466;29;20123;-65
2022/01/16 06:31:07;;;;;;;46.85;21.95;;;;;;;;;;4923738;29;20043;-63
2022/01/16 06:33:34;;;;;;;44.67;20.75;;;;;;;;;;4924536;29;20134;-63
2022/01/16 06:36:01;;;;;;;46.28;22.05;;;;;;;;;;4926950;29;20139;-64
2022/01/16 06:38:28;;;;;;;48.97;20.88;;;;;;;;;;4922709;29;20048;-63
2022/01/16 06:40:54;;;;;;;51.08;22.70;;;;;;;;;;4923780;29;20067;-63
2022/01/16 06:43:21;;;;;;;43.60;21.25;;;;;;;;;;4925287;29;20079;-63
2022/01/16 06:45:47;;;;;;;46.58;21.90;;;;;;;;;;4925690;29;20416;-64
2022/01/16 06:48:15;;;;;;;51.47;22.83;;;;;;;;;;4921240;29;20186;-63
2022/01/16 06:50:42;;;;;;;43.15;20.92;;;;;;;;;;4924444;29;20139;-64
2022/01/16 06:53:08;;;;;;;47.90;23.38;;;;;;;;;;4921701;29;20130;-63
2022/01/16 06:55:35;;;;;;;45.67;22.27;;;;;;;;;;4923232;29;20044;-64
2022/01/16 06:58:01;;;;;;;49.55;22.48;;;;;;;;;;4923345;29;20495;-64
2022/01/16 07:00:28;;;;;;;52.38;22.92;;;;;;;;;;4923719;29;20150;-64
2022/01/16 07:02:54;;;;;;;49.83;24.23;;;;;;;;;;4923859;29;20566;-64
2022/01/16 07:05:22;;;;;;;52.78;25.20;;;;;;;;;;4924514;29;21483;-64
2022/01/16 07:07:49;;;;;;;54.30;24.67;;;;;;;;;;4921800;29;20142;-64
2022/01/16 07:10:15;;;;;;;49.83;23.45;;;;;;;;;;4923635;29;20561;-64
2022/01/16 07:12:45;;;;;;;47.92;22.88;;;;;;;;;;4930103;29;20071;-64
2022/01/16 07:15:12;;;;;;;50.67;24.60;;;;;;;;;;4928677;29;20122;-64
2022/01/16 07:17:38;;;;;;;58.25;23.60;;;;;;;;;;4928857;29;20135;-64
2022/01/16 07:20:06;;;;;;;52.20;24.27;;;;;;;;;;4928607;29;20143;-64
2022/01/16 07:22:34;;;;;;;46.33;23.48;;;;;;;;;;4928712;29;20078;-64
2022/01/16 07:25:00;;;;;;;48.78;23.50;;;;;;;;;;4923635;29;20133;-64
2022/01/16 07:27:27;;;;;;;49.03;23.73;;;;;;;;;;4922876;29;20166;-64
2022/01/16 07:29:53;;;;;;;54.70;26.85;;;;;;;;;;4921939;29;20127;-64
2022/01/16 07:32:20;;;;;;;62.60;27.27;;;;;;;;;;4922224;29;20144;-64
2022/01/16 07:34:46;;;;;;;54.83;23.85;;;;;;;;;;4921690;29;20075;-64
2022/01/16 07:37:13;;;;;;;52.20;25.65;;;;;;;;;;4920278;29;20135;-64
2022/01/16 07:39:41;;;;;;;60.15;27.17;;;;;;;;;;4920828;29;20134;-64
2022/01/16 07:42:08;;;;;;;56.25;25.17;;;;;;;;;;4923562;29;20070;-64
2022/01/16 07:44:35;;;;;;;56.85;26.10;;;;;;;;;;4924007;29;20122;-64
2022/01/16 07:47:02;;;;;;;55.88;24.73;;;;;;;;;;4924161;29;20063;-62
2022/01/16 07:49:28;;;;;;;62.72;28.17;;;;;;;;;;4924024;29;20139;-64
2022/01/16 07:51:55;;;;;;;57.35;26.20;;;;;;;;;;4924822;29;20111;-64
2022/01/16 07:54:21;;;;;;;52.80;24.48;;;;;;;;;;4922167;29;20083;-64
2022/01/16 07:56:50;;;;;;;56.60;26.33;;;;;;;;;;4922215;29;20152;-64
2022/01/16 07:59:17;;;;;;;54.17;24.77;;;;;;;;;;4922985;29;20135;-64
2022/01/16 08:01:44;;;;;;;58.85;26.23;;;;;;;;;;4922724;29;20503;-64
2022/01/16 08:04:10;;;;;;;54.15;23.60;;;;;;;;;;4922991;29;20075;-64
2022/01/16 08:06:37;;;;;;;54.17;25.60;;;;;;;;;;4921727;29;20393;-64
2022/01/16 08:09:03;;;;;;;55.53;23.67;;;;;;;;;;4924594;29;20044;-64
2022/01/16 08:11:30;;;;;;;53.50;24.23;;;;;;;;;;4926347;29;20052;-64
2022/01/16 08:13:58;;;;;;;57.63;26.80;;;;;;;;;;4923348;29;20051;-64
2022/01/16 08:16:24;;;;;;;52.05;24.38;;;;;;;;;;4906288;29;20139;-64
2022/01/16 08:18:51;;;;;;;51.83;23.70;;;;;;;;;;4929042;29;20043;-64
2022/01/16 08:21:18;;;;;;;54.67;24.67;;;;;;;;;;4926858;29;20139;-64
2022/01/16 08:23:44;;;;;;;60.47;27.55;;;;;;;;;;4923931;29;20123;-64
2022/01/16 08:26:11;;;;;;;57.30;26.38;;;;;;;;;;4925041;29;20134;-64
2022/01/16 08:28:37;;;;;;;58.58;27.50;;;;;;;;;;4925784;29;20138;-64
2022/01/16 08:31:05;;;;;;;59.50;24.70;;;;;;;;;;4927112;29;20479;-64
2022/01/16 08:33:32;;;;;;;57.20;26.98;;;;;;;;;;4925193;29;20083;-64
2022/01/16 08:35:58;;;;;;;51.03;25.45;;;;;;;;;;4927574;29;20134;-64
2022/01/16 08:38:26;;;;;;;53.90;26.13;;;;;;;;;;4939746;28;20262;-64
2022/01/16 08:40:53;;;;;;;52.58;24.83;;;;;;;;;;4923881;29;20110;-64
2022/01/16 08:43:20;;;;;;;51.13;24.52;;;;;;;;;;4922886;29;20171;-64
2022/01/16 08:45:46;;;;;;;52.05;25.08;;;;;;;;;;4922936;29;20139;-64
2022/01/16 08:48:14;;;;;;;49.95;25.25;;;;;;;;;;4924833;29;20146;-64
2022/01/16 08:50:41;;;;;;;58.60;28.02;;;;;;;;;;4925617;29;20545;-62
2022/01/16 08:53:08;;;;;;;55.75;25.70;;;;;;;;;;4926113;29;20138;-64
2022/01/16 08:55:37;;;;;;;57.72;26.50;;;;;;;;;;4926160;29;20134;-62
2022/01/16 08:58:03;;;;;;;53.80;24.85;;;;;;;;;;4928162;29;20051;-63
2022/01/16 09:00:31;;;;;;;44.42;22.63;;;;;;;;;;4925743;29;20173;-62
2022/01/16 09:02:58;;;;;;;50.03;25.15;;;;;;;;;;4923270;29;20055;-63
2022/01/16 09:05:26;;;;;;;46.13;25.20;;;;;;;;;;4925029;29;20445;-63
2022/01/16 09:07:53;;;;;;;48.50;25.40;;;;;;;;;;4923631;29;20138;-63
2022/01/16 09:10:20;;;;;;;51.88;25.23;;;;;;;;;;4924004;29;20588;-63
2022/01/16 09:12:47;;;;;;;51.92;25.13;;;;;;;;;;4927757;29;20131;-63
2022/01/16 09:15:14;;;;;;;45.78;24.15;;;;;;;;;;4923870;29;20162;-63
2022/01/16 09:17:41;;;;;;;50.80;24.77;;;;;;;;;;4925865;29;20132;-63
2022/01/16 09:20:09;;;;;;;51.88;26.17;;;;;;;;;;4922640;29;20174;-63
2022/01/16 09:22:39;;;;;;;49.55;24.77;;;;;;;;;;4922286;29;20142;-63
2022/01/16 09:25:06;;;;;;;46.30;23.52;;;;;;;;;;4922961;29;20055;-63
2022/01/16 09:27:33;;;;;;;44.33;23.75;;;;;;;;;;4923545;29;20083;-63
2022/01/16 09:30:00;;;;;;;45.33;21.90;;;;;;;;;;4929482;29;20044;-63
2022/01/16 09:32:26;;;;;;;50.42;25.52;;;;;;;;;;4929725;29;20071;-61
2022/01/16 09:34:53;;;;;;;51.22;24.83;;;;;;;;;;4931414;29;20228;-63
2022/01/16 09:37:19;;;;;;;48.30;24.05;;;;;;;;;;4930679;29;20122;-62
2022/01/16 09:39:47;;;;;;;40.50;20.30;;;;;;;;;;4931000;29;20143;-63
2022/01/16 09:42:14;;;;;;;40.88;22.08;;;;;;;;;;4931498;29;20079;-63
2022/01/16 09:44:41;;;;;;;37.05;20.45;;;;;;;;;;4932199;29;20067;-63
2022/01/16 09:47:09;;;;;;;42.55;22.20;;;;;;;;;;4930795;29;20079;-63
2022/01/16 09:49:36;;;;;;;37.53;19.20;;;;;;;;;;4930786;29;20067;-63
2022/01/16 09:52:02;;;;;;;36.05;19.55;;;;;;;;;;4928889;29;20909;-63
2022/01/16 09:54:29;;;;;;;36.72;20.02;;;;;;;;;;4928674;29;20123;-63
2022/01/16 09:56:57;;;;;;;40.78;20.65;;;;;;;;;;4929428;29;20118;-63
2022/01/16 09:59:24;;;;;;;36.80;20.67;;;;;;;;;;4924689;29;20139;-63
2022/01/16 10:01:51;;;;;;;39.80;19.15;;;;;;;;;;4930397;29;20131;-63
2022/01/16 10:04:31;;;;;;;37.13;19.90;;;;;;;;;;4926600;29;20052;-63
2022/01/16 10:06:59;;;;;;;36.67;22.15;;;;;;;;;;4929132;29;20059;-63
2022/01/16 10:09:26;;;;;;;34.28;19.42;;;;;;;;;;4927643;29;20102;-63
2022/01/16 10:11:59;;;;;;;31.98;19.02;;;;;;;;;;4933827;29;20051;-64
2022/01/16 10:14:34;;;;;;;33.83;18.10;;;;;;;;;;4926010;29;20119;-64
2022/01/16 10:17:09;;;;;;;32.22;18.75;;;;;;;;;;4940299;28;20598;-63
2022/01/16 10:19:36;;;;;;;34.28;18.48;;;;;;;;;;4930437;29;20047;-63
2022/01/16 10:22:04;;;;;;;32.58;17.35;;;;;;;;;;4930546;29;20148;-63
2022/01/16 10:24:34;;;;;;;31.75;17.45;;;;;;;;;;4924772;29;20485;-63
2022/01/16 10:27:21;;;;;;;33.67;17.92;;;;;;;;;;4932291;29;20047;-64
2022/01/16 10:29:49;;;;;;;30.35;16.00;;;;;;;;;;4927991;29;20051;-64
2022/01/16 10:32:18;;;;;;;33.65;16.20;;;;;;;;;;4928950;29;20085;-64
2022/01/16 10:34:46;;;;;;;31.77;18.30;;;;;;;;;;4928066;29;20058;-64
2022/01/16 10:37:24;;;;;;;32.55;16.73;;;;;;;;;;4926246;29;20075;-64
2022/01/16 10:39:56;;;;;;;33.08;18.08;;;;;;;;;;4933636;29;20075;-64
2022/01/16 10:42:24;;;;;;;29.92;17.05;;;;;;;;;;4930854;29;20091;-64
2022/01/16 10:44:57;;;;;;;31.67;17.55;;;;;;;;;;4926869;29;20080;-64
2022/01/16 10:47:30;;;;;;;29.83;17.23;;;;;;;;;;4929150;29;20051;-63
2022/01/16 10:50:03;;;;;;;31.95;16.60;;;;;;;;;;4928362;29;20123;-64
2022/01/16 10:52:30;;;;;;;26.90;15.00;;;;;;;;;;4928918;29;20086;-63
2022/01/16 10:55:05;;;;;;;26.80;16.00;;;;;;;;;;4928382;29;20143;-64
2022/01/16 10:57:33;;;;;;;27.55;15.07;;;;;;;;;;4928594;29;20091;-64
2022/01/16 11:00:09;;;;;;;31.63;16.10;;;;;;;;;;4929688;29;20070;-64
2022/01/16 11:02:36;;;;;;;25.88;15.20;;;;;;;;;;4927741;29;20170;-64
2022/01/16 11:05:10;;;;;;;28.77;14.25;;;;;;;;;;4928831;29;20104;-64
2022/01/16 11:07:38;;;;;;;24.25;14.32;;;;;;;;;;4927451;29;20142;-64
2022/01/16 11:10:22;;;;;;;27.83;14.77;;;;;;;;;;4925963;29;20056;-64
2022/01/16 11:12:50;;;;;;;28.27;15.43;;;;;;;;;;4924219;29;20714;-64
2022/01/16 11:15:16;;;;;;;30.77;15.25;;;;;;;;;;4924699;29;21165;-64
2022/01/16 11:17:43;;;;;;;31.13;16.75;;;;;;;;;;4919293;29;20174;-64
2022/01/16 11:20:11;;;;;;;26.20;14.65;;;;;;;;;;4911816;29;20131;-64
2022/01/16 11:22:56;;;;;;;25.60;13.60;;;;;;;;;;4914458;29;20111;-64
2022/01/16 11:25:31;;;;;;;24.67;14.52;;;;;;;;;;4912292;29;20565;-65
2022/01/16 11:28:01;;;;;;;27.60;14.77;;;;;;;;;;4911657;29;20449;-64
2022/01/16 11:30:29;;;;;;;25.17;14.25;;;;;;;;;;4913416;29;20100;-64
2022/01/16 11:32:56;;;;;;;27.58;15.43;;;;;;;;;;4894351;29;20099;-64
2022/01/16 11:35:22;;;;;;;24.17;14.70;;;;;;;;;;4913733;29;20135;-64
2022/01/16 11:37:50;;;;;;;25.27;15.23;;;;;;;;;;4912628;29;20151;-64
2022/01/16 11:40:27;;;;;;;28.73;15.20;;;;;;;;;;4912127;29;20218;-64
2022/01/16 11:43:31;;;;;;;26.70;14.23;;;;;;;;;;4911250;29;20054;-64
2022/01/16 11:46:07;;;;;;;23.92;14.05;;;;;;;;;;4913726;29;20119;-64
2022/01/16 11:48:35;;;;;;;25.38;13.85;;;;;;;;;;4911503;29;20147;-64
2022/01/16 11:51:03;;;;;;;23.98;13.98;;;;;;;;;;4912210;29;20749;-64
2022/01/16 11:54:05;;;;;;;25.92;14.55;;;;;;;;;;4912481;29;20060;-64
2022/01/16 11:57:24;;;;;;;22.58;12.90;;;;;;;;;;4911833;29;21260;-64
2022/01/16 11:59:54;;;;;;;26.13;14.85;;;;;;;;;;4915008;29;20174;-64
2022/01/16 12:02:26;;;;;;;25.08;14.60;;;;;;;;;;4915355;29;20062;-64
2022/01/16 12:05:05;;;;;;;24.35;13.65;;;;;;;;;;4914208;29;20110;-64
2022/01/16 12:07:46;;;;;;;23.55;13.90;;;;;;;;;;4914165;29;20099;-64
2022/01/16 12:10:13;;;;;;;24.55;13.95;;;;;;;;;;4912744;29;20059;-64
2022/01/16 12:12:39;;;;;;;23.67;13.27;;;;;;;;;;4913739;29;20170;-64
2022/01/16 12:15:08;;;;;;;21.67;12.65;;;;;;;;;;4912851;29;20062;-64
2022/01/16 12:17:41;;;;;;;23.98;13.27;;;;;;;;;;4913056;29;20139;-64
2022/01/16 12:20:26;;;;;;;21.95;13.07;;;;;;;;;;4915088;29;20055;-64
2022/01/16 12:22:55;;;;;;;23.60;14.38;;;;;;;;;;4912684;29;20063;-64
2022/01/16 12:25:23;;;;;;;22.13;13.02;;;;;;;;;;4911931;29;20484;-64
2022/01/16 12:27:55;;;;;;;22.05;12.98;;;;;;;;;;4914499;29;20628;-64
2022/01/16 12:30:48;;;;;;;22.48;13.10;;;;;;;;;;4914446;29;20064;-64
2022/01/16 12:33:29;;;;;;;22.98;13.90;;;;;;;;;;4909105;29;20064;-64
2022/01/16 12:36:13;;;;;;;21.77;14.05;;;;;;;;;;4911144;29;20123;-64
2022/01/16 12:38:47;;;;;;;24.27;14.27;;;;;;;;;;4914369;29;20520;-64
2022/01/16 12:41:16;;;;;;;25.50;13.93;;;;;;;;;;4913309;29;20168;-64
2022/01/16 12:43:50;;;;;;;22.65;12.90;;;;;;;;;;4910234;29;20090;-64
2022/01/16 12:46:21;;;;;;;20.90;13.00;;;;;;;;;;4911457;29;20071;-64
2022/01/16 12:48:50;;;;;;;20.88;12.93;;;;;;;;;;4911755;29;20155;-66
2022/01/16 12:51:17;;;;;;;20.15;12.32;;;;;;;;;;4912645;29;20059;-64
2022/01/16 12:53:45;;;;;;;22.15;12.15;;;;;;;;;;4911221;29;20071;-64
2022/01/16 12:56:28;;;;;;;20.05;11.73;;;;;;;;;;4912274;29;20131;-63
2022/01/16 12:58:56;;;;;;;21.75;12.02;;;;;;;;;;4917728;29;20107;-63
2022/01/16 13:01:25;;;;;;;21.33;11.48;;;;;;;;;;4916689;29;20142;-62
2022/01/16 13:03:52;;;;;;;23.98;11.93;;;;;;;;;;4915007;29;20044;-62
2022/01/16 13:06:26;;;;;;;21.55;12.20;;;;;;;;;;4917350;29;20139;-62
2022/01/16 13:08:54;;;;;;;18.88;11.18;;;;;;;;;;4917198;29;20090;-62
2022/01/16 13:11:21;;;;;;;19.60;11.73;;;;;;;;;;4914872;29;20147;-63
2022/01/16 13:13:48;;;;;;;23.27;12.45;;;;;;;;;;4914343;29;21404;-63
2022/01/16 13:16:19;;;;;;;21.33;11.55;;;;;;;;;;4914521;29;20075;-62
2022/01/16 13:19:10;;;;;;;22.05;11.75;;;;;;;;;;4918980;29;20056;-63
2022/01/16 13:21:47;;;;;;;18.67;11.00;;;;;;;;;;4916353;29;20051;-62
2022/01/16 13:24:24;;;;;;;18.52;11.05;;;;;;;;;;4915859;29;20059;-63
2022/01/16 13:26:51;;;;;;;20.65;12.35;;;;;;;;;;4919203;29;20139;-66
2022/01/16 13:29:19;;;;;;;18.58;10.80;;;;;;;;;;4916465;29;20167;-62
2022/01/16 13:31:46;;;;;;;20.90;12.00;;;;;;;;;;4925634;29;20056;-62
2022/01/16 13:34:15;;;;;;;20.00;11.50;;;;;;;;;;4928291;29;20500;-63
2022/01/16 13:36:50;;;;;;;21.55;11.05;;;;;;;;;;4925628;29;20761;-63
2022/01/16 13:39:19;;;;;;;22.85;11.63;;;;;;;;;;4924129;29;20062;-63
2022/01/16 13:41:45;;;;;;;20.55;11.88;;;;;;;;;;4926370;29;20146;-63
2022/01/16 13:44:26;;;;;;;23.38;12.73;;;;;;;;;;4928207;29;20576;-62
2022/01/16 13:46:58;;;;;;;21.27;12.93;;;;;;;;;;4926133;29;20134;-62
2022/01/16 13:49:26;;;;;;;25.95;13.93;;;;;;;;;;4926565;29;20079;-62
2022/01/16 13:51:56;;;;;;;23.15;12.02;;;;;;;;;;4926582;29;20127;-62
2022/01/16 13:54:29;;;;;;;21.50;13.30;;;;;;;;;;4928376;29;20142;-62
2022/01/16 13:56:56;;;;;;;22.60;11.80;;;;;;;;;;4931431;29;20134;-62
2022/01/16 13:59:23;;;;;;;23.10;12.30;;;;;;;;;;4931751;29;20088;-62
2022/01/16 14:01:53;;;;;;;26.17;11.52;;;;;;;;;;4929452;29;20138;-62
2022/01/16 14:04:20;;;;;;;20.30;11.32;;;;;;;;;;4929727;29;20116;-62
2022/01/16 14:06:50;;;;;;;19.40;12.25;;;;;;;;;;4929498;29;20559;-62
2022/01/16 14:09:17;;;;;;;18.90;11.55;;;;;;;;;;4927327;29;20043;-62
2022/01/16 14:11:46;;;;;;;21.50;11.88;;;;;;;;;;4926548;29;20167;-62
2022/01/16 14:14:15;;;;;;;22.10;10.75;;;;;;;;;;4925538;29;20062;-62
2022/01/16 14:16:46;;;;;;;19.88;11.10;;;;;;;;;;4927015;29;20051;-62
2022/01/16 14:19:15;;;;;;;20.40;11.95;;;;;;;;;;4926334;29;20044;-62
2022/01/16 14:22:06;;;;;;;19.05;12.15;;;;;;;;;;4927207;29;20410;-62
2022/01/16 14:24:34;;;;;;;22.83;11.85;;;;;;;;;;4929274;29;20114;-62
2022/01/16 14:27:02;;;;;;;22.20;11.88;;;;;;;;;;4929051;29;20146;-62
2022/01/16 14:29:29;;;;;;;21.13;12.05;;;;;;;;;;4927830;29;20063;-62
2022/01/16 14:31:57;;;;;;;28.10;13.63;;;;;;;;;;4928993;29;20139;-62
2022/01/16 14:34:25;;;;;;;24.75;13.75;;;;;;;;;;4927925;29;20479;-62
2022/01/16 14:36:54;;;;;;;22.20;12.50;;;;;;;;;;4930866;29;20146;-62
2022/01/16 14:39:22;;;;;;;24.45;13.32;;;;;;;;;;4929529;29;20067;-62
2022/01/16 14:41:50;;;;;;;23.00;12.18;;;;;;;;;;4929349;29;20044;-62
2022/01/16 14:44:17;;;;;;;20.60;13.10;;;;;;;;;;4928634;29;20059;-62
2022/01/16 14:46:44;;;;;;;20.88;12.55;;;;;;;;;;4927985;29;20071;-62
2022/01/16 14:49:11;;;;;;;26.48;15.07;;;;;;;;;;4926855;29;20119;-62
2022/01/16 14:51:37;;;;;;;26.40;15.02;;;;;;;;;;4926981;29;20162;-62
2022/01/16 14:54:06;;;;;;;25.73;14.48;;;;;;;;;;4928915;29;20159;-62
2022/01/16 14:56:32;;;;;;;28.13;15.73;;;;;;;;;;4925367;29;20158;-62
2022/01/16 14:58:59;;;;;;;30.27;16.63;;;;;;;;;;4925426;29;21294;-62
2022/01/16 15:01:26;;;;;;;27.40;14.63;;;;;;;;;;4924508;29;20094;-62
2022/01/16 15:03:52;;;;;;;25.83;15.52;;;;;;;;;;4927933;29;20595;-61
2022/01/16 15:06:19;;;;;;;24.27;15.48;;;;;;;;;;4925210;29;20051;-62
2022/01/16 15:08:47;;;;;;;25.58;15.68;;;;;;;;;;4925487;29;20063;-62